Time;durP1;ratioP1;P1;durP2;ratioP2;P2;SDS_P1;SDS_P2;PMS_P1;PMS_P2;Temp;Humidity;BMP_temperature;BMP_pressure;BME280_temperature;BME280_humidity;BME280_pressure;Samples;Min_cycle;Max_cycle;Signal;HPM_P1;HPM_P2
2022/05/12 00:02:55;;;;;;;10.00;6.18;;;;;14.00;96157.00;;;;8304435;28;1242715;-74
2022/05/12 00:06:58;;;;;;;8.20;6.47;;;;;14.00;96147.00;;;;8350212;28;20229;-75
2022/05/12 00:11:02;;;;;;;8.68;6.10;;;;;14.00;96155.00;;;;8347920;28;20305;-78
2022/05/12 00:15:12;;;;;;;7.35;6.18;;;;;14.00;96161.00;;;;8345738;28;21023;-75
2022/05/12 00:19:15;;;;;;;12.38;7.35;;;;;14.20;96152.00;;;;8349320;28;20228;-76
2022/05/12 00:23:20;;;;;;;9.50;7.00;;;;;14.30;96157.00;;;;8350439;28;20309;-76
2022/05/12 00:27:25;;;;;;;10.82;7.22;;;;;14.40;96160.00;;;;8347112;28;20243;-74
2022/05/12 00:31:30;;;;;;;7.95;6.45;;;;;14.40;96150.00;;;;8348609;28;20276;-76
2022/05/12 00:35:34;;;;;;;8.02;6.88;;;;;14.40;96160.00;;;;8351416;28;20227;-78
2022/05/12 00:39:38;;;;;;;9.43;6.35;;;;;14.30;96170.00;;;;8348937;28;20869;-76
2022/05/12 00:43:44;;;;;;;8.32;6.82;;;;;14.20;96158.00;;;;8346237;28;20762;-74
2022/05/12 00:47:49;;;;;;;6.60;5.90;;;;;14.10;96160.00;;;;8343780;28;20218;-74
2022/05/12 00:51:57;;;;;;;7.97;6.57;;;;;14.10;96157.00;;;;8349619;28;20230;-77
2022/05/12 00:56:00;;;;;;;8.93;6.78;;;;;14.10;96159.00;;;;8352316;28;20224;-77
2022/05/12 01:00:06;;;;;;;10.63;6.78;;;;;14.10;96155.00;;;;8349033;28;20243;-76
2022/05/12 01:04:12;;;;;;;13.57;7.22;;;;;14.10;96157.00;;;;8344868;28;20754;-74
2022/05/12 01:08:18;;;;;;;8.43;6.15;;;;;14.20;96153.00;;;;8349517;28;20316;-78
2022/05/12 01:12:24;;;;;;;11.02;7.30;;;;;14.30;96150.00;;;;8351724;28;20310;-77
2022/05/12 01:16:43;;;;;;;7.78;6.25;;;;;14.30;96154.00;;;;8348347;28;20959;-76
2022/05/12 01:20:50;;;;;;;10.38;7.00;;;;;14.40;96156.00;;;;8334731;28;20253;-72
2022/05/12 01:24:55;;;;;;;8.00;6.72;;;;;14.50;96149.00;;;;8347623;28;20259;-75
2022/05/12 01:28:58;;;;;;;8.90;6.80;;;;;14.60;96147.00;;;;8346758;28;20317;-74
2022/05/12 01:33:02;;;;;;;7.53;6.47;;;;;14.60;96144.00;;;;8342266;28;21668;-76
2022/05/12 01:37:05;;;;;;;10.88;6.68;;;;;14.60;96148.00;;;;8344227;28;20229;-74
2022/05/12 01:41:10;;;;;;;14.15;7.30;;;;;14.70;96152.00;;;;8353972;28;20762;-76
2022/05/12 01:45:14;;;;;;;11.07;7.60;;;;;14.80;96142.00;;;;8349177;28;20242;-75
2022/05/12 01:49:18;;;;;;;10.60;7.85;;;;;15.00;96157.00;;;;8345147;28;20318;-73
2022/05/12 01:53:21;;;;;;;7.80;6.97;;;;;15.30;96164.00;;;;8351934;28;20234;-73
2022/05/12 01:57:28;;;;;;;9.60;6.95;;;;;15.40;96175.00;;;;8349806;28;20234;-73
2022/05/12 02:01:31;;;;;;;12.45;7.88;;;;;15.40;96172.00;;;;8338780;28;20220;-74
2022/05/12 02:05:36;;;;;;;11.48;7.25;;;;;15.30;96177.00;;;;8342502;28;20248;-75
2022/05/12 02:09:39;;;;;;;10.48;7.15;;;;;15.20;96185.00;;;;8341666;28;20310;-72
2022/05/12 02:13:44;;;;;;;9.15;7.03;;;;;15.20;96192.00;;;;8346410;28;20237;-76
2022/05/12 02:17:49;;;;;;;8.45;7.43;;;;;15.20;96198.00;;;;8345618;28;20235;-75
2022/05/12 02:21:54;;;;;;;10.75;7.75;;;;;15.40;96197.00;;;;8346913;28;20481;-75
2022/05/12 02:25:57;;;;;;;8.40;7.28;;;;;15.70;96199.00;;;;8346188;28;20263;-75
2022/05/12 02:30:02;;;;;;;10.00;7.18;;;;;16.10;96208.00;;;;8347124;28;20237;-76
2022/05/12 02:34:06;;;;;;;8.40;6.07;;;;;16.30;96202.00;;;;8348471;28;20238;-76
2022/05/12 02:38:09;;;;;;;12.13;6.70;;;;;16.50;96209.00;;;;8342486;28;20235;-74
2022/05/12 02:42:13;;;;;;;12.70;7.55;;;;;16.60;96210.00;;;;8346880;28;20971;-73
2022/05/12 02:46:17;;;;;;;9.07;6.85;;;;;16.70;96215.00;;;;8346040;28;20233;-74
2022/05/12 02:50:21;;;;;;;7.13;5.90;;;;;16.80;96219.00;;;;8341577;28;20225;-76
2022/05/12 02:54:24;;;;;;;10.07;6.88;;;;;16.90;96211.00;;;;8345829;28;20234;-77
2022/05/12 02:58:28;;;;;;;12.15;6.78;;;;;16.90;96217.00;;;;8341728;28;20232;-75
2022/05/12 03:02:33;;;;;;;11.65;6.22;;;;;17.00;96217.00;;;;8360881;22;20232;-77
2022/05/12 03:06:37;;;;;;;8.57;6.40;;;;;17.00;96227.00;;;;8370146;28;20331;-80
2022/05/12 03:10:41;;;;;;;10.90;6.72;;;;;17.00;96218.00;;;;8382476;28;20311;-79
2022/05/12 03:14:44;;;;;;;10.68;7.10;;;;;16.90;96240.00;;;;8378289;28;20302;-78
2022/05/12 03:18:51;;;;;;;13.73;7.45;;;;;16.70;96232.00;;;;8381728;28;20819;-78
2022/05/12 03:22:54;;;;;;;12.05;7.63;;;;;16.70;96245.00;;;;8367649;28;20232;-74
2022/05/12 03:26:58;;;;;;;11.18;7.28;;;;;16.60;96238.00;;;;8383639;28;20358;-75
2022/05/12 03:31:01;;;;;;;9.95;6.97;;;;;16.50;96244.00;;;;8381535;28;20228;-76
2022/05/12 03:35:07;;;;;;;8.35;7.13;;;;;16.40;96247.00;;;;8380933;28;20741;-75
2022/05/12 03:39:11;;;;;;;9.07;7.32;;;;;16.20;96253.00;;;;8377541;28;20235;-73
2022/05/12 03:44:46;;;;;;;7.88;7.10;;;;;15.90;96261.00;;;;8383896;28;20224;-73
2022/05/12 03:47:39;;;;;;;13.13;6.95;;;;;15.70;96266.00;;;;8380529;28;20255;-77
2022/05/12 03:51:45;;;;;;;7.97;7.03;;;;;15.60;96268.00;;;;8383215;28;20298;-75
2022/05/12 03:55:49;;;;;;;9.95;7.55;;;;;15.60;96273.00;;;;8385491;28;20227;-77
2022/05/12 03:59:54;;;;;;;16.13;7.57;;;;;15.50;96275.00;;;;8375170;28;20228;-78
2022/05/12 04:03:58;;;;;;;10.68;7.53;;;;;15.60;96294.00;;;;8367134;28;20273;-73
2022/05/12 04:08:02;;;;;;;9.63;7.70;;;;;15.60;96295.00;;;;8363984;28;20273;-79
2022/05/12 04:12:09;;;;;;;7.93;7.13;;;;;15.80;96297.00;;;;8353409;28;20596;-75
2022/05/12 04:16:12;;;;;;;10.95;7.25;;;;;15.80;96301.00;;;;8339056;28;20251;-73
2022/05/12 04:20:16;;;;;;;9.50;7.20;;;;;15.90;96320.00;;;;8360523;28;20231;-74
2022/05/12 04:24:21;;;;;;;10.57;8.00;;;;;16.00;96315.00;;;;8354673;28;20231;-73
2022/05/12 04:28:24;;;;;;;11.18;8.15;;;;;16.10;96318.00;;;;8359544;28;20250;-75
2022/05/12 04:32:28;;;;;;;13.55;8.25;;;;;16.20;96322.00;;;;8346303;28;20221;-78
2022/05/12 04:36:31;;;;;;;11.95;8.25;;;;;16.30;96323.00;;;;8345730;28;20225;-75
2022/05/12 04:40:36;;;;;;;10.20;7.32;;;;;16.40;96332.00;;;;8345348;28;20319;-75
2022/05/12 04:44:39;;;;;;;9.38;7.53;;;;;16.50;96330.00;;;;8340791;28;20217;-76
2022/05/12 04:48:43;;;;;;;13.25;7.45;;;;;16.70;96347.00;;;;8345811;28;20872;-76
2022/05/12 04:52:47;;;;;;;8.88;7.95;;;;;17.00;96352.00;;;;8345170;28;20235;-74
2022/05/12 04:56:51;;;;;;;11.98;7.75;;;;;17.30;96360.00;;;;8351216;28;20239;-75
2022/05/12 05:00:55;;;;;;;9.55;7.07;;;;;17.80;96368.00;;;;8345144;28;20311;-77
2022/05/12 05:04:58;;;;;;;14.25;6.93;;;;;18.30;96376.00;;;;8373110;28;20246;-75
2022/05/12 05:09:02;;;;;;;9.57;7.05;;;;;18.90;96382.00;;;;8383644;28;20226;-76
2022/05/12 05:13:14;;;;;;;9.85;6.60;;;;;19.20;96389.00;;;;8383518;28;20282;-77
2022/05/12 05:17:17;;;;;;;8.55;6.70;;;;;19.50;96389.00;;;;8383944;28;20231;-77
2022/05/12 05:21:21;;;;;;;10.20;6.75;;;;;19.50;96397.00;;;;8382919;28;20231;-74
2022/05/12 05:25:24;;;;;;;9.27;6.72;;;;;19.50;96399.00;;;;8371752;28;20228;-76
2022/05/12 05:29:29;;;;;;;9.30;7.13;;;;;19.70;96414.00;;;;8378188;28;20394;-76
2022/05/12 05:33:33;;;;;;;12.27;6.50;;;;;20.00;96410.00;;;;8382169;28;20228;-76
2022/05/12 05:37:36;;;;;;;11.93;5.97;;;;;20.30;96418.00;;;;8380390;28;20319;-81
2022/05/12 05:41:39;;;;;;;6.18;4.63;;;;;20.60;96426.00;;;;8382185;28;20248;-77
2022/05/12 05:45:44;;;;;;;4.45;4.05;;;;;20.80;96431.00;;;;8378525;28;20228;-74
2022/05/12 05:49:48;;;;;;;4.53;4.15;;;;;20.90;96435.00;;;;8382121;28;20558;-78
2022/05/12 05:53:51;;;;;;;8.82;4.60;;;;;21.20;96441.00;;;;8381697;28;20232;-75
2022/05/12 05:57:54;;;;;;;4.95;4.18;;;;;21.50;96439.00;;;;8378807;28;20815;-77
2022/05/12 06:02:04;;;;;;;5.80;3.92;;;;;21.80;96444.00;;;;8376210;28;20629;-76
2022/05/12 06:06:08;;;;;;;6.28;3.95;;;;;22.10;96445.00;;;;8368762;28;20235;-75
2022/05/12 06:10:12;;;;;;;4.88;3.10;;;;;22.30;96450.00;;;;8376779;28;20303;-74
2022/05/12 06:14:16;;;;;;;4.20;3.10;;;;;22.50;96462.00;;;;8375749;28;20348;-76
2022/05/12 06:18:20;;;;;;;4.53;3.28;;;;;22.60;96472.00;;;;8381366;28;20303;-76
2022/05/12 06:22:24;;;;;;;5.35;3.17;;;;;22.70;96476.00;;;;8379454;28;20215;-74
2022/05/12 06:26:28;;;;;;;5.43;3.35;;;;;22.80;96480.00;;;;8380283;28;20323;-73
2022/05/12 06:30:31;;;;;;;8.10;2.90;;;;;23.10;96490.00;;;;8378780;28;20608;-75
2022/05/12 06:34:36;;;;;;;5.55;3.15;;;;;23.60;96499.00;;;;8381139;28;20694;-74
2022/05/12 06:38:40;;;;;;;3.15;2.85;;;;;24.10;96502.00;;;;8378737;28;20682;-73
2022/05/12 06:42:43;;;;;;;3.20;2.90;;;;;24.40;96511.00;;;;8376460;28;20659;-74
2022/05/12 06:46:46;;;;;;;2.53;2.33;;;;;24.50;96515.00;;;;8378775;28;20792;-74
2022/05/12 06:50:51;;;;;;;3.95;2.60;;;;;24.80;96517.00;;;;8381292;28;20318;-73
2022/05/12 06:54:54;;;;;;;2.72;2.20;;;;;24.90;96524.00;;;;8378159;28;20302;-76
2022/05/12 06:58:57;;;;;;;5.90;2.53;;;;;25.10;96521.00;;;;8380409;28;20291;-77
2022/05/12 07:03:06;;;;;;;7.20;2.45;;;;;25.30;96525.00;;;;8378373;28;20306;-76
2022/05/12 07:07:12;;;;;;;3.05;2.15;;;;;25.60;96533.00;;;;8368643;28;20223;-78
2022/05/12 07:11:19;;;;;;;3.47;2.00;;;;;25.80;96545.00;;;;8372469;28;20224;-75
2022/05/12 07:15:27;;;;;;;2.28;2.10;;;;;26.30;96541.00;;;;8375426;28;20230;-77
2022/05/12 07:19:33;;;;;;;9.13;2.30;;;;;26.50;96555.00;;;;8369964;28;20250;-75
2022/05/12 07:28:19;;;;;;;2.25;2.10;;;;;25.90;96564.00;;;;8375829;28;20230;-74
2022/05/12 07:32:22;;;;;;;4.10;2.10;;;;;25.60;96568.00;;;;8377428;28;20230;-76
2022/05/12 07:36:28;;;;;;;1.90;1.80;;;;;25.60;96571.00;;;;8380734;28;20975;-77
2022/05/12 07:40:33;;;;;;;3.33;1.85;;;;;25.50;96560.00;;;;8378385;28;20307;-75
2022/05/12 07:44:37;;;;;;;2.25;1.67;;;;;25.40;96571.00;;;;8375070;28;20232;-79
2022/05/12 07:48:41;;;;;;;2.00;1.90;;;;;25.50;96565.00;;;;8378921;28;20254;-75
2022/05/12 07:52:45;;;;;;;2.47;2.00;;;;;26.00;96585.00;;;;8377905;28;20239;-77
2022/05/12 07:56:49;;;;;;;2.67;2.00;;;;;26.50;96579.00;;;;8380146;28;20299;-76
2022/05/12 08:00:53;;;;;;;5.70;2.08;;;;;27.00;96585.00;;;;8379078;28;20239;-77
2022/05/12 08:04:57;;;;;;;4.47;2.08;;;;;27.50;96589.00;;;;8377494;28;20238;-78
2022/05/12 08:09:01;;;;;;;2.05;1.85;;;;;28.20;96591.00;;;;8381919;28;20231;-75
2022/05/12 08:13:14;;;;;;;2.22;2.13;;;;;28.40;96596.00;;;;8385518;28;20212;-76
2022/05/12 08:17:17;;;;;;;2.80;2.17;;;;;28.70;96608.00;;;;8384200;28;20251;-77
2022/05/12 08:21:23;;;;;;;2.00;1.90;;;;;27.80;96595.00;;;;8383342;28;20331;-75
2022/05/12 08:25:27;;;;;;;1.92;1.80;;;;;27.60;96604.00;;;;8388387;28;20624;-77
2022/05/12 08:29:31;;;;;;;3.65;1.80;;;;;27.80;96604.00;;;;8385653;28;20228;-76
2022/05/12 08:33:36;;;;;;;7.40;2.08;;;;;28.90;96615.00;;;;8373030;28;20299;-77
2022/05/12 08:37:40;;;;;;;2.17;1.92;;;;;29.00;96621.00;;;;8382346;28;20236;-81
2022/05/12 08:41:50;;;;;;;3.63;2.08;;;;;28.90;96611.00;;;;8379184;28;20710;-80
2022/05/12 08:46:05;;;;;;;2.85;1.70;;;;;29.70;96619.00;;;;8379571;28;24901;-76
2022/05/12 08:50:13;;;;;;;4.53;1.70;;;;;30.20;96628.00;;;;8383113;28;20230;-74
2022/05/12 08:54:23;;;;;;;3.97;2.03;;;;;30.50;96625.00;;;;8381876;28;20537;-75
2022/05/12 08:58:33;;;;;;;6.70;2.10;;;;;30.60;96629.00;;;;8382063;28;20756;-76
2022/05/12 09:02:49;;;;;;;6.18;1.83;;;;;30.30;96643.00;;;;8380899;28;20238;-75
2022/05/12 09:07:03;;;;;;;3.33;2.20;;;;;29.30;96647.00;;;;8376733;28;20232;-76
2022/05/12 09:11:20;;;;;;;1.92;1.77;;;;;28.80;96646.00;;;;8375762;28;20232;-75
2022/05/12 09:15:27;;;;;;;3.72;1.77;;;;;29.60;96648.00;;;;8375763;28;20225;-75
2022/05/12 09:19:32;;;;;;;3.60;1.80;;;;;30.30;96647.00;;;;8377940;28;20587;-73
2022/05/12 09:23:35;;;;;;;4.00;1.70;;;;;30.50;96650.00;;;;8382609;28;20314;-75
2022/05/12 09:27:44;;;;;;;2.60;2.05;;;;;30.80;96650.00;;;;8381600;28;20249;-77
2022/05/12 09:31:50;;;;;;;2.17;1.80;;;;;30.40;96648.00;;;;8375932;28;20231;-77
2022/05/12 09:36:00;;;;;;;2.58;2.15;;;;;30.20;96648.00;;;;8378192;28;20234;-74
2022/05/12 09:40:19;;;;;;;4.18;2.00;;;;;30.10;96669.00;;;;8380679;28;20243;-71
2022/05/12 09:44:26;;;;;;;2.60;1.70;;;;;30.40;96653.00;;;;8376663;28;20310;-71
2022/05/12 09:48:31;;;;;;;2.92;2.00;;;;;29.90;96655.00;;;;8376354;28;20968;-72
2022/05/12 09:52:37;;;;;;;2.80;2.28;;;;;29.50;96659.00;;;;8377505;28;20234;-71
2022/05/12 09:56:43;;;;;;;6.07;2.10;;;;;28.50;96659.00;;;;8378586;28;20742;-74
2022/05/12 10:00:50;;;;;;;4.90;2.15;;;;;29.40;96664.00;;;;8377360;28;20231;-74
2022/05/12 10:09:35;;;;;;;3.55;2.50;;;;;30.50;96639.00;;;;8378680;28;20231;-75
2022/05/12 10:13:45;;;;;;;2.80;2.10;;;;;31.50;96642.00;;;;8378567;28;20232;-76
2022/05/12 10:17:51;;;;;;;3.70;2.30;;;;;31.10;96643.00;;;;8378532;28;20223;-75
2022/05/12 10:22:08;;;;;;;2.10;2.00;;;;;30.60;96647.00;;;;8377611;28;20318;-77
2022/05/12 10:26:16;;;;;;;3.40;2.20;;;;;30.40;96650.00;;;;8375060;28;20254;-78
2022/05/12 10:30:27;;;;;;;3.28;2.38;;;;;30.50;96647.00;;;;8366545;28;20239;-78
2022/05/12 10:34:42;;;;;;;4.28;2.20;;;;;30.80;96650.00;;;;8369642;28;20224;-77
2022/05/12 10:38:55;;;;;;;7.45;2.40;;;;;30.90;96653.00;;;;8363228;28;20316;-78
2022/05/12 10:43:23;;;;;;;2.65;2.45;;;;;31.10;96658.00;;;;8373905;28;20287;-78
2022/05/12 10:47:40;;;;;;;2.90;2.70;;;;;30.90;96659.00;;;;8375932;28;20635;-78
2022/05/12 10:51:52;;;;;;;5.35;2.90;;;;;30.30;96651.00;;;;8373416;28;20349;-78
2022/05/12 10:56:08;;;;;;;4.30;2.90;;;;;30.30;96655.00;;;;8381675;28;20319;-78
2022/05/12 11:00:30;;;;;;;4.70;2.38;;;;;29.80;96653.00;;;;8376719;28;20223;-77
2022/05/12 11:04:38;;;;;;;3.88;2.30;;;;;29.80;96646.00;;;;8379901;28;20235;-77
2022/05/12 11:08:47;;;;;;;5.90;3.13;;;;;29.50;96639.00;;;;8378151;28;20332;-75
2022/05/12 11:12:53;;;;;;;3.10;2.90;;;;;30.70;96642.00;;;;8375896;28;20216;-77
2022/05/12 11:17:06;;;;;;;3.08;2.70;;;;;31.40;96635.00;;;;8379374;28;20294;-78
2022/05/12 11:21:16;;;;;;;3.63;2.45;;;;;31.50;96631.00;;;;8376713;28;20688;-79
2022/05/12 11:25:26;;;;;;;2.72;2.30;;;;;31.80;96632.00;;;;8380406;28;20254;-78
2022/05/12 11:29:44;;;;;;;3.05;2.50;;;;;32.00;96622.00;;;;8378078;28;20244;-79
2022/05/12 11:33:53;;;;;;;6.95;2.80;;;;;31.80;96632.00;;;;8376563;28;20721;-78
2022/05/12 11:38:00;;;;;;;3.33;2.33;;;;;31.90;96637.00;;;;8379575;28;20335;-80
2022/05/12 11:42:21;;;;;;;5.00;2.60;;;;;30.90;96613.00;;;;8380658;28;20215;-79
2022/05/12 11:47:06;;;;;;;3.00;2.70;;;;;29.50;96614.00;;;;8382509;28;20231;-81
2022/05/12 11:51:25;;;;;;;5.72;2.63;;;;;29.60;96640.00;;;;8344900;28;20789;-80
2022/05/12 11:55:30;;;;;;;5.03;2.70;;;;;30.30;96637.00;;;;8385082;28;20220;-82
2022/05/12 11:59:51;;;;;;;5.07;2.80;;;;;30.50;96624.00;;;;8384753;28;20676;-80
2022/05/12 12:03:55;;;;;;;3.47;2.90;;;;;31.00;96613.00;;;;8383174;28;20232;-81
2022/05/12 12:08:04;;;;;;;2.72;2.58;;;;;31.30;96611.00;;;;8385606;28;20314;-83
2022/05/12 12:12:09;;;;;;;4.85;2.42;;;;;31.10;96608.00;;;;8386791;28;20302;-77
2022/05/12 12:16:14;;;;;;;3.92;2.63;;;;;30.70;96613.00;;;;8377288;28;20224;-77
2022/05/12 12:20:47;;;;;;;3.33;3.05;;;;;29.50;96607.00;;;;8378121;28;20281;-78
2022/05/12 12:25:15;;;;;;;3.53;2.90;;;;;29.70;96607.00;;;;8376150;28;20596;-76
2022/05/12 12:29:21;;;;;;;3.38;3.05;;;;;29.50;96603.00;;;;8386297;28;20243;-77
2022/05/12 12:34:06;;;;;;;3.38;3.00;;;;;29.40;96597.00;;;;8384894;28;20695;-79
2022/05/12 12:38:10;;;;;;;6.88;3.20;;;;;29.10;96603.00;;;;8355656;28;20918;-77
2022/05/12 12:42:43;;;;;;;2.80;2.60;;;;;28.80;96586.00;;;;8380564;28;20691;-78
2022/05/12 12:46:58;;;;;;;7.13;2.40;;;;;28.70;96574.00;;;;8365839;28;20315;-80
2022/05/12 12:51:03;;;;;;;4.22;2.75;;;;;28.50;96592.00;;;;8380770;28;21749;-78
2022/05/12 12:59:43;;;;;;;2.70;2.50;;;;;28.40;96582.00;;;;8376996;28;20228;-80
2022/05/12 13:03:50;;;;;;;3.03;2.75;;;;;28.30;96577.00;;;;8369766;28;20509;-79
2022/05/12 13:07:56;;;;;;;5.00;2.90;;;;;28.30;96568.00;;;;8360646;28;20230;-77
2022/05/12 13:12:11;;;;;;;7.15;2.90;;;;;28.40;96563.00;;;;8370603;28;20227;-76
2022/05/12 13:16:21;;;;;;;6.03;3.08;;;;;28.50;96563.00;;;;8378339;28;20285;-81
2022/05/12 13:20:26;;;;;;;5.25;3.10;;;;;28.70;96551.00;;;;8379597;28;20983;-79
2022/05/12 13:24:32;;;;;;;3.70;2.80;;;;;28.80;96560.00;;;;8384077;28;20243;-79
2022/05/12 13:28:38;;;;;;;6.35;3.00;;;;;29.40;96549.00;;;;8383790;28;20238;-78
2022/05/12 13:32:48;;;;;;;4.82;3.33;;;;;29.40;96551.00;;;;8383536;28;20318;-76
2022/05/12 13:36:53;;;;;;;3.47;3.13;;;;;30.10;96551.00;;;;8375568;28;20224;-79
2022/05/12 13:40:58;;;;;;;2.95;2.70;;;;;30.80;96552.00;;;;8381472;28;20265;-78
2022/05/12 13:45:06;;;;;;;3.42;3.13;;;;;31.20;96550.00;;;;8383388;28;20596;-80
2022/05/12 13:49:12;;;;;;;3.03;2.80;;;;;31.10;96541.00;;;;8382948;28;20227;-77
2022/05/12 13:53:25;;;;;;;2.65;2.42;;;;;31.20;96524.00;;;;8376293;28;20242;-76
2022/05/12 13:57:33;;;;;;;2.85;2.65;;;;;31.40;96534.00;;;;8380095;28;20310;-78
2022/05/12 14:01:36;;;;;;;7.68;2.88;;;;;31.90;96535.00;;;;8375138;28;20864;-78
2022/05/12 14:05:41;;;;;;;4.82;3.00;;;;;31.80;96535.00;;;;8382331;28;20224;-78
2022/05/12 14:09:52;;;;;;;4.95;3.05;;;;;31.90;96530.00;;;;8366520;28;20229;-78
2022/05/12 14:22:59;;;;;;;5.45;3.05;;;;;31.70;96532.00;;;;8376627;28;20316;-76
2022/05/12 14:27:03;;;;;;;2.40;2.20;;;;;31.40;96520.00;;;;8382553;28;20323;-77
2022/05/12 14:31:07;;;;;;;4.13;2.50;;;;;31.70;96522.00;;;;8380701;28;20224;-76
2022/05/12 14:35:14;;;;;;;3.13;2.80;;;;;32.00;96510.00;;;;8381065;28;20235;-78
2022/05/12 14:39:20;;;;;;;2.90;2.70;;;;;31.90;96516.00;;;;8380367;28;20220;-78
2022/05/12 14:43:24;;;;;;;5.38;2.53;;;;;31.90;96512.00;;;;8381539;28;20625;-73
2022/05/12 14:47:31;;;;;;;4.10;2.85;;;;;31.80;96504.00;;;;8382442;28;20235;-77
2022/05/12 14:51:36;;;;;;;4.28;2.67;;;;;31.80;96502.00;;;;8381542;28;20238;-76
2022/05/12 14:55:41;;;;;;;4.50;2.50;;;;;31.30;96499.00;;;;8374631;28;20228;-77
2022/05/12 14:59:44;;;;;;;4.75;2.63;;;;;31.40;96491.00;;;;8376735;28;20242;-77
2022/05/12 15:03:58;;;;;;;4.40;2.35;;;;;31.50;96488.00;;;;8385053;28;20829;-77
2022/05/12 15:08:02;;;;;;;5.07;2.15;;;;;31.60;96484.00;;;;8383174;28;20220;-77
2022/05/12 15:12:09;;;;;;;3.13;2.83;;;;;31.80;96480.00;;;;8379516;28;20230;-77
2022/05/12 15:16:13;;;;;;;2.53;2.33;;;;;31.90;96485.00;;;;8384631;28;20953;-77
2022/05/12 15:20:19;;;;;;;5.47;2.80;;;;;31.70;96474.00;;;;8382810;28;20748;-77
2022/05/12 15:24:22;;;;;;;2.47;2.28;;;;;31.40;96478.00;;;;8377281;28;20720;-76
2022/05/12 15:28:30;;;;;;;3.75;2.80;;;;;31.20;96469.00;;;;8385726;28;20289;-78
2022/05/12 15:32:34;;;;;;;2.70;2.50;;;;;31.10;96465.00;;;;8387678;28;20712;-76
2022/05/12 15:36:40;;;;;;;5.80;2.50;;;;;31.00;96464.00;;;;8387421;28;20231;-76
2022/05/12 15:40:43;;;;;;;4.85;2.90;;;;;30.70;96465.00;;;;8386573;28;20238;-76
2022/05/12 15:44:49;;;;;;;3.00;2.60;;;;;30.50;96467.00;;;;8388222;28;20741;-76
2022/05/12 15:49:02;;;;;;;2.95;2.75;;;;;30.30;96460.00;;;;8386502;28;20240;-78
2022/05/12 15:53:06;;;;;;;3.55;3.10;;;;;30.60;96465.00;;;;8381680;28;20220;-77
2022/05/12 15:57:10;;;;;;;4.13;2.88;;;;;30.90;96462.00;;;;8380632;28;20278;-77
2022/05/12 16:01:17;;;;;;;4.55;2.88;;;;;30.60;96460.00;;;;8378425;28;20588;-78
2022/05/12 16:05:20;;;;;;;3.28;2.58;;;;;30.30;96456.00;;;;8350069;28;20220;-77
2022/05/12 16:09:24;;;;;;;2.85;2.67;;;;;30.70;96452.00;;;;8358637;28;20239;-78
2022/05/12 16:13:31;;;;;;;4.13;2.80;;;;;31.00;96450.00;;;;8367622;28;20231;-78
2022/05/12 16:17:35;;;;;;;4.75;2.80;;;;;31.00;96442.00;;;;8373212;28;20310;-76
2022/05/12 16:21:39;;;;;;;3.85;2.88;;;;;30.80;96439.00;;;;8353611;28;20315;-75
2022/05/12 16:25:47;;;;;;;8.48;2.78;;;;;30.70;96434.00;;;;8355841;28;20216;-75
2022/05/12 16:29:53;;;;;;;3.50;2.65;;;;;29.90;96424.00;;;;8366669;28;20237;-76
2022/05/12 16:33:58;;;;;;;4.57;2.40;;;;;29.30;96428.00;;;;8361831;28;20232;-78
2022/05/12 16:38:01;;;;;;;5.80;2.67;;;;;28.80;96439.00;;;;8355867;28;20307;-76
2022/05/12 16:42:05;;;;;;;6.82;2.83;;;;;28.50;96420.00;;;;8354942;28;20224;-76
2022/05/12 16:46:12;;;;;;;6.35;2.60;;;;;28.50;96425.00;;;;8359903;28;20320;-72
2022/05/12 16:50:16;;;;;;;8.65;2.92;;;;;28.50;96422.00;;;;8368139;28;20551;-73
2022/05/12 16:54:20;;;;;;;5.18;2.85;;;;;28.40;96429.00;;;;8354860;28;21765;-73
2022/05/12 16:58:24;;;;;;;5.22;2.83;;;;;28.40;96421.00;;;;8370365;28;20228;-74
2022/05/12 17:02:30;;;;;;;4.57;2.80;;;;;28.20;96418.00;;;;8374066;28;20581;-73
2022/05/12 17:06:35;;;;;;;10.20;3.38;;;;;28.10;96427.00;;;;8389689;28;20655;-73
2022/05/12 17:10:39;;;;;;;5.78;3.30;;;;;27.80;96427.00;;;;8401608;28;20225;-74
2022/05/12 17:14:42;;;;;;;7.30;3.10;;;;;27.40;96423.00;;;;8382904;28;20239;-75
2022/05/12 17:18:46;;;;;;;4.78;2.80;;;;;27.20;96417.00;;;;8397327;28;20231;-74
2022/05/12 17:22:53;;;;;;;4.85;3.05;;;;;27.10;96417.00;;;;8391461;28;20907;-74
2022/05/12 17:26:56;;;;;;;8.30;3.25;;;;;26.90;96416.00;;;;8401395;28;20224;-74
2022/05/12 17:30:59;;;;;;;8.93;3.08;;;;;26.90;96422.00;;;;8382374;28;20741;-74
2022/05/12 17:35:09;;;;;;;3.67;2.90;;;;;26.80;96417.00;;;;8372711;28;20234;-72
2022/05/12 17:39:15;;;;;;;8.43;3.20;;;;;26.60;96423.00;;;;8382056;28;20224;-73
2022/05/12 17:43:19;;;;;;;5.25;3.03;;;;;26.30;96428.00;;;;8387327;28;20220;-71
2022/05/12 17:47:23;;;;;;;3.85;3.15;;;;;25.90;96430.00;;;;8373960;28;20238;-72
2022/05/12 17:51:27;;;;;;;3.25;2.40;;;;;25.60;96437.00;;;;8378934;28;20231;-74
2022/05/12 17:55:31;;;;;;;5.30;2.50;;;;;25.20;96433.00;;;;8377109;28;20232;-72
2022/05/12 17:59:35;;;;;;;6.50;2.80;;;;;24.90;96431.00;;;;8379397;28;20668;-74
2022/05/12 18:03:39;;;;;;;4.82;2.67;;;;;24.70;96438.00;;;;8378605;28;20354;-73
2022/05/12 18:07:43;;;;;;;4.97;2.67;;;;;24.40;96447.00;;;;8373903;28;20224;-76
2022/05/12 18:11:48;;;;;;;3.53;2.30;;;;;24.20;96461.00;;;;8381629;28;21094;-73
2022/05/12 18:15:53;;;;;;;2.88;2.40;;;;;24.10;96459.00;;;;8380086;28;20241;-76
2022/05/12 18:19:57;;;;;;;6.72;2.33;;;;;23.90;96462.00;;;;8378630;28;20234;-71
2022/05/12 18:24:00;;;;;;;4.43;2.30;;;;;23.20;96468.00;;;;8377563;28;20235;-70
2022/05/12 18:28:07;;;;;;;3.90;2.42;;;;;22.60;96476.00;;;;8376560;28;20775;-73
2022/05/12 18:32:10;;;;;;;2.67;2.47;;;;;22.10;96485.00;;;;8374953;28;20318;-69
2022/05/12 18:41:14;;;;;;;4.28;2.63;;;;;21.70;96501.00;;;;8396868;28;20227;-71
2022/05/12 18:50:36;;;;;;;4.43;3.10;;;;;21.10;96513.00;;;;8367290;28;20249;-71
2022/05/12 18:55:08;;;;;;;9.45;2.97;;;;;20.80;96513.00;;;;8394323;28;20216;-68
2022/05/12 18:59:42;;;;;;;5.97;3.40;;;;;20.70;96537.00;;;;8393573;28;20243;-70
2022/05/12 19:03:47;;;;;;;8.68;4.15;;;;;19.70;96582.00;;;;8394213;28;20294;-67
2022/05/12 19:08:20;;;;;;;11.00;4.28;;;;;18.80;96601.00;;;;8392272;28;20222;-70
2022/05/12 19:12:58;;;;;;;11.30;4.65;;;;;18.30;96634.00;;;;8391749;28;20231;-68
2022/05/12 19:17:35;;;;;;;8.15;4.60;;;;;18.00;96635.00;;;;8393794;28;20303;-68
2022/05/12 19:22:15;;;;;;;5.88;4.43;;;;;17.80;96612.00;;;;8392399;28;20323;-70
2022/05/12 19:26:18;;;;;;;12.38;4.80;;;;;17.70;96597.00;;;;8393808;28;20298;-69
2022/05/12 19:30:54;;;;;;;7.25;5.07;;;;;17.80;96617.00;;;;8393358;28;20339;-69
2022/05/12 19:34:57;;;;;;;12.68;5.57;;;;;17.80;96602.00;;;;8393764;28;20240;-69
2022/05/12 19:39:36;;;;;;;11.07;6.68;;;;;17.90;96613.00;;;;8392783;28;20231;-68
2022/05/12 19:44:13;;;;;;;11.68;5.78;;;;;17.90;96605.00;;;;8393823;28;20299;-68
2022/05/12 19:48:54;;;;;;;11.23;5.70;;;;;17.60;96621.00;;;;8392806;28;20212;-70
2022/05/12 19:53:27;;;;;;;11.23;5.72;;;;;17.60;96580.00;;;;8392593;28;20216;-69
2022/05/12 19:58:05;;;;;;;9.13;5.80;;;;;17.50;96563.00;;;;8393661;28;20243;-69
2022/05/12 20:02:36;;;;;;;10.40;6.32;;;;;17.40;96557.00;;;;8392713;28;20272;-67
2022/05/12 20:07:14;;;;;;;11.02;5.88;;;;;17.40;96547.00;;;;8398955;28;20228;-67
2022/05/12 20:11:51;;;;;;;11.10;6.78;;;;;17.40;96532.00;;;;8399566;28;20299;-66
2022/05/12 20:15:57;;;;;;;12.80;7.00;;;;;17.40;96546.00;;;;8399006;28;20226;-66
2022/05/12 20:20:00;;;;;;;11.35;5.88;;;;;17.40;96543.00;;;;8398909;28;20573;-66
2022/05/12 20:24:04;;;;;;;8.30;5.75;;;;;17.40;96536.00;;;;8399112;28;20223;-65
2022/05/12 20:28:41;;;;;;;12.77;5.78;;;;;17.30;96525.00;;;;8398256;28;20299;-66
2022/05/12 20:32:46;;;;;;;7.50;6.10;;;;;17.30;96532.00;;;;8399569;28;20255;-65
2022/05/12 20:37:20;;;;;;;9.57;6.22;;;;;17.20;96519.00;;;;8398319;28;20223;-65
2022/05/12 20:41:56;;;;;;;8.00;4.80;;;;;17.20;96532.00;;;;8398911;28;20646;-65
2022/05/12 20:46:33;;;;;;;14.77;5.60;;;;;17.20;96539.00;;;;8398416;28;20212;-64
2022/05/12 20:51:13;;;;;;;6.25;4.63;;;;;17.20;96524.00;;;;8398069;28;20224;-64
2022/05/12 20:55:16;;;;;;;9.05;5.32;;;;;17.20;96537.00;;;;8398124;28;20307;-65
2022/05/12 20:59:53;;;;;;;8.68;5.57;;;;;17.20;96531.00;;;;8398327;28;20307;-64
2022/05/12 21:03:56;;;;;;;5.50;4.55;;;;;17.30;96531.00;;;;8397282;28;20587;-63
2022/05/12 21:08:01;;;;;;;6.70;4.72;;;;;17.30;96516.00;;;;8398409;28;20227;-63
2022/05/12 21:12:35;;;;;;;11.40;5.53;;;;;17.20;96525.00;;;;8397317;28;20230;-64
2022/05/12 21:16:42;;;;;;;5.57;4.97;;;;;17.30;96522.00;;;;8397876;28;20254;-64